Adaline — TCSP7 — position and weather

sailwx.info

Track history (hours):
 
Tides and Currents Weather Stations Pressure Air Temp Water Temp Dewpoint Dewpoint Depression Visibility Wind Speed Wind Dir Waves Ship Positions

Adaline

Last reported at 2017-Oct-19 19:40 UTC. Time now 2017-Oct-20 12:42 UTC.
Position N 46°37' E 032°36'.

Length 115 m; draft 4.6 m.

Type: Cargo ship. MMSI: 271000946.

Date/timePositionNaut miles runAvg speedWind from/ knotsBaromVisibWave heightAir tempDewpointWater temp
2017-Oct-19 19:40N 46°37' E 032°36'0 0.1
2017-Oct-19 19:10N 46°37' E 032°36'0 0.0
2017-Oct-19 18:58N 46°37' E 032°36'0 0.1
2017-Oct-19 18:16N 46°37' E 032°36'0 0.0
2017-Oct-19 17:52N 46°37' E 032°36'  
2017-Oct-14 07:48N 46°33' E 032°13'411.5
2017-Oct-14 07:28N 46°32' E 032°07'511.3
2017-Oct-14 07:00N 46°33' E 031°60'611.4
2017-Oct-14 06:31N 46°35' E 031°52'611.2
2017-Oct-14 06:01N 46°36' E 031°44'811.6
2017-Oct-14 05:19N 46°34' E 031°32'26 9.6
2017-Oct-14 02:39N 46°27' E 030°57'210.4
2017-Oct-14 02:28N 46°25' E 030°57'135 7.9
2017-Oct-13 09:23N 44°13' E 030°21'1011.3
2017-Oct-13 08:28N 44°03' E 030°17'511.2
2017-Oct-13 08:00N 43°58' E 030°15'611.1
2017-Oct-13 07:29N 43°53' E 030°13'511.0
2017-Oct-13 07:01N 43°47' E 030°11'510.9
2017-Oct-13 06:31N 43°42' E 030°09'510.8
2017-Oct-13 06:01N 43°37' E 030°07'1011.0
2017-Oct-13 05:04N 43°27' E 030°02'111.2
2017-Oct-13 05:01N 43°26' E 030°02'811.4
2017-Oct-13 04:21N 43°19' E 029°59'411.5
2017-Oct-13 04:00N 43°15' E 029°58'611.5
2017-Oct-13 03:31N 43°10' E 029°56'611.5
2017-Oct-13 03:01N 43°04' E 029°54'611.4
2017-Oct-13 02:30N 42°59' E 029°52'611.7
2017-Oct-13 02:00N 42°53' E 029°50'611.8
2017-Oct-13 01:31N 42°47' E 029°48'  
Track history (hours):
 
Tides and Currents Weather Stations Pressure Air Temp Water Temp Dewpoint Dewpoint Depression Visibility Wind Speed Wind Dir Waves Ship Positions

Adaline

Last reported at 2017-Oct-19 19:40 UTC. Time now 2017-Oct-20 12:42 UTC.
Position N 46°37' E 032°36'.

Length 115 m; draft 4.6 m.

Type: Cargo ship. MMSI: 271000946.

Date/timePositionNaut miles runAvg speedWind from/ knotsBaromVisibWave heightAir tempDewpointWater temp
2017-Oct-19 19:40N 46°37' E 032°36'0 0.1
2017-Oct-19 19:10N 46°37' E 032°36'0 0.0
2017-Oct-19 18:58N 46°37' E 032°36'0 0.1
2017-Oct-19 18:16N 46°37' E 032°36'0 0.0
2017-Oct-19 17:52N 46°37' E 032°36'  
2017-Oct-14 07:48N 46°33' E 032°13'411.5
2017-Oct-14 07:28N 46°32' E 032°07'511.3
2017-Oct-14 07:00N 46°33' E 031°60'611.4
2017-Oct-14 06:31N 46°35' E 031°52'611.2
2017-Oct-14 06:01N 46°36' E 031°44'811.6
2017-Oct-14 05:19N 46°34' E 031°32'26 9.6
2017-Oct-14 02:39N 46°27' E 030°57'210.4
2017-Oct-14 02:28N 46°25' E 030°57'135 7.9
2017-Oct-13 09:23N 44°13' E 030°21'1011.3
2017-Oct-13 08:28N 44°03' E 030°17'511.2
2017-Oct-13 08:00N 43°58' E 030°15'611.1
2017-Oct-13 07:29N 43°53' E 030°13'511.0
2017-Oct-13 07:01N 43°47' E 030°11'510.9
2017-Oct-13 06:31N 43°42' E 030°09'510.8
2017-Oct-13 06:01N 43°37' E 030°07'1011.0
2017-Oct-13 05:04N 43°27' E 030°02'111.2
2017-Oct-13 05:01N 43°26' E 030°02'811.4
2017-Oct-13 04:21N 43°19' E 029°59'411.5
2017-Oct-13 04:00N 43°15' E 029°58'611.5
2017-Oct-13 03:31N 43°10' E 029°56'611.5
2017-Oct-13 03:01N 43°04' E 029°54'611.4
2017-Oct-13 02:30N 42°59' E 029°52'611.7
2017-Oct-13 02:00N 42°53' E 029°50'611.8
2017-Oct-13 01:31N 42°47' E 029°48'  

Dump ship's entire track history